Harrison, Michigan
Current Conditions -  °F | °C
As of 4:53 AM on Wednesday 26 Nov 2014 (Local Time) from KHTL Reporting Station
Overcast Overcast  
Wind Chill: 25°   Ceiling: 2100
Heat Index: 25°   Visibility: 10mi
Dew Point: 18°   Wind: 3mph
Humidity: 75%   Direction: 10°N
Pressure: 30.16"   Gusts: NA
Location:  44.02°N, 84.8°W
Report Text: KHTL 260953Z AUTO 01003KT 10SM OVC021 M04/M08 A3016 RMK AO2 SLP228 T10391078
Loading
Personal Weather Stations






























Interactive Weather Map New forecast layout! Learn more

10-Day Weather Forecast

Advertisements
Track Severe Weather on mobile